sensor_id;sensor_type;location;lat;lon;timestamp;P1;durP1;ratioP1;P2;durP2;ratioP2
49029;SDS011;43337;52.070;4.508;2023-07-31T00:00:06;26.52;;;6.03;;
49029;SDS011;43337;52.070;4.508;2023-07-31T00:02:34;27.92;;;6.93;;
49029;SDS011;43337;52.070;4.508;2023-07-31T00:04:59;28.73;;;5.90;;
49029;SDS011;43337;52.070;4.508;2023-07-31T00:07:25;24.33;;;6.03;;
49029;SDS011;43337;52.070;4.508;2023-07-31T00:09:50;29.27;;;5.38;;
49029;SDS011;43337;52.070;4.508;2023-07-31T00:12:16;25.73;;;6.55;;
49029;SDS011;43337;52.070;4.508;2023-07-31T00:14:41;29.80;;;6.72;;
49029;SDS011;43337;52.070;4.508;2023-07-31T00:17:07;22.27;;;5.65;;
49029;SDS011;43337;52.070;4.508;2023-07-31T00:19:32;27.40;;;5.57;;
49029;SDS011;43337;52.070;4.508;2023-07-31T00:21:57;29.67;;;6.47;;
49029;SDS011;43337;52.070;4.508;2023-07-31T00:24:23;28.38;;;6.18;;
49029;SDS011;43337;52.070;4.508;2023-07-31T00:26:48;30.38;;;5.93;;
49029;SDS011;43337;52.070;4.508;2023-07-31T00:29:13;33.15;;;7.07;;
49029;SDS011;43337;52.070;4.508;2023-07-31T00:31:38;28.02;;;5.38;;
49029;SDS011;43337;52.070;4.508;2023-07-31T00:34:04;24.90;;;5.65;;
49029;SDS011;43337;52.070;4.508;2023-07-31T00:36:29;25.50;;;6.30;;
49029;SDS011;43337;52.070;4.508;2023-07-31T00:38:55;29.52;;;5.30;;
49029;SDS011;43337;52.070;4.508;2023-07-31T00:41:20;36.63;;;6.80;;
49029;SDS011;43337;52.070;4.508;2023-07-31T00:43:46;27.35;;;6.80;;
49029;SDS011;43337;52.070;4.508;2023-07-31T00:46:11;28.33;;;6.38;;
49029;SDS011;43337;52.070;4.508;2023-07-31T00:48:36;27.30;;;6.28;;
49029;SDS011;43337;52.070;4.508;2023-07-31T00:51:03;23.55;;;5.32;;
49029;SDS011;43337;52.070;4.508;2023-07-31T00:53:29;26.40;;;6.80;;
49029;SDS011;43337;52.070;4.508;2023-07-31T00:55:54;27.58;;;6.40;;
49029;SDS011;43337;52.070;4.508;2023-07-31T00:58:20;24.85;;;5.38;;
49029;SDS011;43337;52.070;4.508;2023-07-31T01:00:45;36.92;;;8.13;;
49029;SDS011;43337;52.070;4.508;2023-07-31T01:06:40;31.42;;;6.63;;
49029;SDS011;43337;52.070;4.508;2023-07-31T01:12:13;26.55;;;4.97;;
49029;SDS011;43337;52.070;4.508;2023-07-31T01:14:50;24.35;;;5.78;;
49029;SDS011;43337;52.070;4.508;2023-07-31T01:17:17;30.30;;;5.68;;
49029;SDS011;43337;52.070;4.508;2023-07-31T01:19:42;26.15;;;6.15;;
49029;SDS011;43337;52.070;4.508;2023-07-31T01:22:29;22.52;;;5.45;;
49029;SDS011;43337;52.070;4.508;2023-07-31T01:28:14;26.92;;;6.13;;
49029;SDS011;43337;52.070;4.508;2023-07-31T01:30:46;28.55;;;5.97;;
49029;SDS011;43337;52.070;4.508;2023-07-31T01:33:13;26.58;;;5.65;;
49029;SDS011;43337;52.070;4.508;2023-07-31T01:35:42;26.85;;;7.03;;
49029;SDS011;43337;52.070;4.508;2023-07-31T01:38:09;27.77;;;5.70;;
49029;SDS011;43337;52.070;4.508;2023-07-31T01:40:35;23.33;;;5.55;;
49029;SDS011;43337;52.070;4.508;2023-07-31T01:43:00;29.48;;;6.72;;
49029;SDS011;43337;52.070;4.508;2023-07-31T01:45:25;27.55;;;6.68;;
49029;SDS011;43337;52.070;4.508;2023-07-31T01:47:51;27.25;;;5.65;;
49029;SDS011;43337;52.070;4.508;2023-07-31T01:50:17;27.88;;;5.75;;
49029;SDS011;43337;52.070;4.508;2023-07-31T01:52:42;25.20;;;5.10;;
49029;SDS011;43337;52.070;4.508;2023-07-31T01:55:07;33.55;;;6.72;;
49029;SDS011;43337;52.070;4.508;2023-07-31T01:57:33;21.58;;;5.55;;
49029;SDS011;43337;52.070;4.508;2023-07-31T01:59:58;25.92;;;5.45;;
49029;SDS011;43337;52.070;4.508;2023-07-31T02:02:24;25.33;;;5.32;;
49029;SDS011;43337;52.070;4.508;2023-07-31T02:04:49;22.88;;;5.13;;
49029;SDS011;43337;52.070;4.508;2023-07-31T02:07:14;29.88;;;6.88;;
49029;SDS011;43337;52.070;4.508;2023-07-31T02:09:40;26.05;;;5.80;;
49029;SDS011;43337;52.070;4.508;2023-07-31T02:12:06;16.33;;;5.57;;
49029;SDS011;43337;52.070;4.508;2023-07-31T02:14:33;33.08;;;6.50;;
49029;SDS011;43337;52.070;4.508;2023-07-31T02:20:21;34.20;;;6.30;;
49029;SDS011;43337;52.070;4.508;2023-07-31T02:22:46;29.15;;;6.38;;
49029;SDS011;43337;52.070;4.508;2023-07-31T02:25:12;30.42;;;6.78;;
49029;SDS011;43337;52.070;4.508;2023-07-31T02:27:37;21.63;;;7.57;;
49029;SDS011;43337;52.070;4.508;2023-07-31T02:30:02;31.83;;;7.40;;
49029;SDS011;43337;52.070;4.508;2023-07-31T02:32:28;23.50;;;5.68;;
49029;SDS011;43337;52.070;4.508;2023-07-31T02:34:53;28.60;;;6.50;;
49029;SDS011;43337;52.070;4.508;2023-07-31T02:37:19;33.83;;;6.80;;
49029;SDS011;43337;52.070;4.508;2023-07-31T02:39:44;20.95;;;6.63;;
49029;SDS011;43337;52.070;4.508;2023-07-31T02:42:11;28.58;;;5.05;;
49029;SDS011;43337;52.070;4.508;2023-07-31T02:44:36;21.83;;;6.38;;
49029;SDS011;43337;52.070;4.508;2023-07-31T02:47:02;20.23;;;5.15;;
49029;SDS011;43337;52.070;4.508;2023-07-31T02:49:28;23.00;;;5.88;;
49029;SDS011;43337;52.070;4.508;2023-07-31T02:51:53;24.48;;;5.47;;
49029;SDS011;43337;52.070;4.508;2023-07-31T02:54:19;18.40;;;5.35;;
49029;SDS011;43337;52.070;4.508;2023-07-31T02:56:46;23.80;;;5.60;;
49029;SDS011;43337;52.070;4.508;2023-07-31T02:59:12;22.52;;;5.72;;
49029;SDS011;43337;52.070;4.508;2023-07-31T03:01:37;24.58;;;5.40;;
49029;SDS011;43337;52.070;4.508;2023-07-31T03:04:03;23.85;;;4.78;;
49029;SDS011;43337;52.070;4.508;2023-07-31T03:06:29;26.95;;;6.20;;
49029;SDS011;43337;52.070;4.508;2023-07-31T03:08:54;27.98;;;5.78;;
49029;SDS011;43337;52.070;4.508;2023-07-31T03:11:19;27.27;;;6.18;;
49029;SDS011;43337;52.070;4.508;2023-07-31T03:13:45;28.77;;;6.18;;
49029;SDS011;43337;52.070;4.508;2023-07-31T03:16:10;27.52;;;5.75;;
49029;SDS011;43337;52.070;4.508;2023-07-31T03:18:36;21.08;;;5.20;;
49029;SDS011;43337;52.070;4.508;2023-07-31T03:21:01;26.60;;;6.22;;
49029;SDS011;43337;52.070;4.508;2023-07-31T03:23:26;20.55;;;5.10;;
49029;SDS011;43337;52.070;4.508;2023-07-31T03:25:58;26.23;;;6.05;;
49029;SDS011;43337;52.070;4.508;2023-07-31T03:28:25;31.17;;;6.13;;
49029;SDS011;43337;52.070;4.508;2023-07-31T03:30:51;25.90;;;5.50;;
49029;SDS011;43337;52.070;4.508;2023-07-31T03:33:17;22.23;;;5.70;;
49029;SDS011;43337;52.070;4.508;2023-07-31T03:35:43;31.02;;;6.05;;
49029;SDS011;43337;52.070;4.508;2023-07-31T03:38:08;23.27;;;5.15;;
49029;SDS011;43337;52.070;4.508;2023-07-31T03:40:34;26.58;;;5.28;;
49029;SDS011;43337;52.070;4.508;2023-07-31T03:42:59;23.40;;;5.45;;
49029;SDS011;43337;52.070;4.508;2023-07-31T03:45:27;20.98;;;6.55;;
49029;SDS011;43337;52.070;4.508;2023-07-31T03:47:52;23.05;;;5.15;;
49029;SDS011;43337;52.070;4.508;2023-07-31T03:50:19;25.95;;;5.15;;
49029;SDS011;43337;52.070;4.508;2023-07-31T03:52:45;27.55;;;5.78;;
49029;SDS011;43337;52.070;4.508;2023-07-31T03:55:10;23.92;;;4.60;;
49029;SDS011;43337;52.070;4.508;2023-07-31T03:57:35;21.23;;;5.07;;
49029;SDS011;43337;52.070;4.508;2023-07-31T04:00:01;16.83;;;4.85;;
49029;SDS011;43337;52.070;4.508;2023-07-31T04:02:26;17.58;;;3.60;;
49029;SDS011;43337;52.070;4.508;2023-07-31T04:04:51;11.75;;;2.88;;
49029;SDS011;43337;52.070;4.508;2023-07-31T04:07:17;17.33;;;3.38;;
49029;SDS011;43337;52.070;4.508;2023-07-31T04:09:42;15.13;;;3.25;;
49029;SDS011;43337;52.070;4.508;2023-07-31T04:12:07;9.40;;;2.42;;
49029;SDS011;43337;52.070;4.508;2023-07-31T04:14:33;8.85;;;2.40;;
49029;SDS011;43337;52.070;4.508;2023-07-31T04:16:58;14.93;;;3.30;;
49029;SDS011;43337;52.070;4.508;2023-07-31T04:19:24;10.48;;;3.83;;
49029;SDS011;43337;52.070;4.508;2023-07-31T04:21:49;12.10;;;2.90;;
49029;SDS011;43337;52.070;4.508;2023-07-31T04:24:15;10.35;;;2.20;;
49029;SDS011;43337;52.070;4.508;2023-07-31T04:26:40;8.18;;;2.25;;
49029;SDS011;43337;52.070;4.508;2023-07-31T04:29:06;11.10;;;2.13;;
49029;SDS011;43337;52.070;4.508;2023-07-31T04:31:31;5.28;;;2.10;;
49029;SDS011;43337;52.070;4.508;2023-07-31T04:33:56;6.53;;;1.40;;
49029;SDS011;43337;52.070;4.508;2023-07-31T04:36:22;7.32;;;2.25;;
49029;SDS011;43337;52.070;4.508;2023-07-31T04:38:47;7.75;;;1.67;;
49029;SDS011;43337;52.070;4.508;2023-07-31T04:41:12;6.53;;;1.83;;
49029;SDS011;43337;52.070;4.508;2023-07-31T04:43:38;4.50;;;1.25;;
49029;SDS011;43337;52.070;4.508;2023-07-31T04:46:04;5.47;;;1.83;;
49029;SDS011;43337;52.070;4.508;2023-07-31T04:48:30;7.22;;;1.80;;
49029;SDS011;43337;52.070;4.508;2023-07-31T04:50:55;4.45;;;1.38;;
49029;SDS011;43337;52.070;4.508;2023-07-31T04:53:21;6.90;;;1.92;;
49029;SDS011;43337;52.070;4.508;2023-07-31T04:55:46;5.32;;;2.10;;
49029;SDS011;43337;52.070;4.508;2023-07-31T04:58:11;7.25;;;2.65;;
49029;SDS011;43337;52.070;4.508;2023-07-31T05:00:36;7.35;;;2.25;;
49029;SDS011;43337;52.070;4.508;2023-07-31T05:03:02;6.18;;;2.70;;
49029;SDS011;43337;52.070;4.508;2023-07-31T05:05:27;7.30;;;2.83;;
49029;SDS011;43337;52.070;4.508;2023-07-31T05:07:53;6.70;;;2.53;;
49029;SDS011;43337;52.070;4.508;2023-07-31T05:10:18;8.05;;;3.17;;
49029;SDS011;43337;52.070;4.508;2023-07-31T05:12:43;10.73;;;2.72;;
49029;SDS011;43337;52.070;4.508;2023-07-31T05:15:09;7.57;;;2.45;;
49029;SDS011;43337;52.070;4.508;2023-07-31T05:17:35;10.52;;;2.90;;
49029;SDS011;43337;52.070;4.508;2023-07-31T05:20:00;8.95;;;2.70;;
49029;SDS011;43337;52.070;4.508;2023-07-31T05:22:25;7.00;;;2.53;;
49029;SDS011;43337;52.070;4.508;2023-07-31T05:24:51;8.05;;;2.50;;
49029;SDS011;43337;52.070;4.508;2023-07-31T05:27:16;8.63;;;3.22;;
49029;SDS011;43337;52.070;4.508;2023-07-31T05:29:43;4.65;;;2.60;;
49029;SDS011;43337;52.070;4.508;2023-07-31T05:32:09;8.80;;;2.80;;
49029;SDS011;43337;52.070;4.508;2023-07-31T05:34:34;6.50;;;3.15;;
49029;SDS011;43337;52.070;4.508;2023-07-31T05:37:00;10.80;;;3.38;;
49029;SDS011;43337;52.070;4.508;2023-07-31T05:39:25;5.35;;;2.55;;
49029;SDS011;43337;52.070;4.508;2023-07-31T05:41:50;9.70;;;2.92;;
49029;SDS011;43337;52.070;4.508;2023-07-31T05:44:16;7.53;;;2.42;;
49029;SDS011;43337;52.070;4.508;2023-07-31T05:49:57;6.97;;;2.45;;
49029;SDS011;43337;52.070;4.508;2023-07-31T05:52:22;4.78;;;1.95;;
49029;SDS011;43337;52.070;4.508;2023-07-31T05:58:00;3.47;;;1.75;;
49029;SDS011;43337;52.070;4.508;2023-07-31T06:00:25;8.30;;;1.80;;
49029;SDS011;43337;52.070;4.508;2023-07-31T06:02:50;5.68;;;1.70;;
49029;SDS011;43337;52.070;4.508;2023-07-31T06:05:16;3.75;;;1.75;;
49029;SDS011;43337;52.070;4.508;2023-07-31T06:07:41;4.35;;;1.30;;
49029;SDS011;43337;52.070;4.508;2023-07-31T06:10:07;5.13;;;1.40;;
49029;SDS011;43337;52.070;4.508;2023-07-31T06:12:33;5.25;;;1.30;;
49029;SDS011;43337;52.070;4.508;2023-07-31T06:14:59;4.53;;;1.23;;
49029;SDS011;43337;52.070;4.508;2023-07-31T06:17:24;4.53;;;1.23;;
49029;SDS011;43337;52.070;4.508;2023-07-31T06:19:51;3.25;;;1.20;;
49029;SDS011;43337;52.070;4.508;2023-07-31T06:22:18;3.40;;;0.90;;
49029;SDS011;43337;52.070;4.508;2023-07-31T06:24:43;4.95;;;0.95;;
49029;SDS011;43337;52.070;4.508;2023-07-31T06:27:09;5.20;;;0.95;;
49029;SDS011;43337;52.070;4.508;2023-07-31T06:29:35;5.30;;;1.50;;
49029;SDS011;43337;52.070;4.508;2023-07-31T06:32:00;3.88;;;1.10;;
49029;SDS011;43337;52.070;4.508;2023-07-31T06:34:26;2.33;;;0.70;;
49029;SDS011;43337;52.070;4.508;2023-07-31T06:36:51;2.83;;;0.90;;
49029;SDS011;43337;52.070;4.508;2023-07-31T06:39:17;4.78;;;0.95;;
49029;SDS011;43337;52.070;4.508;2023-07-31T06:41:42;3.53;;;0.80;;
49029;SDS011;43337;52.070;4.508;2023-07-31T06:44:09;2.95;;;0.80;;
49029;SDS011;43337;52.070;4.508;2023-07-31T06:46:34;5.32;;;1.20;;
49029;SDS011;43337;52.070;4.508;2023-07-31T06:49:00;3.67;;;0.80;;
49029;SDS011;43337;52.070;4.508;2023-07-31T06:51:25;1.65;;;0.73;;
49029;SDS011;43337;52.070;4.508;2023-07-31T06:53:50;2.33;;;0.98;;
49029;SDS011;43337;52.070;4.508;2023-07-31T06:56:16;3.03;;;0.68;;
49029;SDS011;43337;52.070;4.508;2023-07-31T06:58:41;1.75;;;0.63;;
49029;SDS011;43337;52.070;4.508;2023-07-31T07:01:07;3.58;;;0.75;;
49029;SDS011;43337;52.070;4.508;2023-07-31T07:03:32;2.20;;;0.60;;
49029;SDS011;43337;52.070;4.508;2023-07-31T07:05:57;1.80;;;0.60;;
49029;SDS011;43337;52.070;4.508;2023-07-31T07:08:24;1.95;;;0.60;;
49029;SDS011;43337;52.070;4.508;2023-07-31T07:10:49;2.90;;;0.68;;
49029;SDS011;43337;52.070;4.508;2023-07-31T07:13:14;3.83;;;0.60;;
49029;SDS011;43337;52.070;4.508;2023-07-31T07:15:40;2.28;;;0.60;;
49029;SDS011;43337;52.070;4.508;2023-07-31T07:18:05;2.65;;;0.90;;
49029;SDS011;43337;52.070;4.508;2023-07-31T07:20:31;1.42;;;0.40;;
49029;SDS011;43337;52.070;4.508;2023-07-31T07:22:56;1.42;;;0.57;;
49029;SDS011;43337;52.070;4.508;2023-07-31T07:25:21;1.13;;;0.38;;
49029;SDS011;43337;52.070;4.508;2023-07-31T07:27:47;1.73;;;0.50;;
49029;SDS011;43337;52.070;4.508;2023-07-31T07:30:12;0.95;;;0.40;;
49029;SDS011;43337;52.070;4.508;2023-07-31T07:32:39;2.95;;;0.40;;
49029;SDS011;43337;52.070;4.508;2023-07-31T07:35:04;1.35;;;0.50;;
49029;SDS011;43337;52.070;4.508;2023-07-31T07:37:30;2.38;;;0.80;;
49029;SDS011;43337;52.070;4.508;2023-07-31T07:39:56;3.58;;;0.85;;
49029;SDS011;43337;52.070;4.508;2023-07-31T07:42:22;11.90;;;2.05;;
49029;SDS011;43337;52.070;4.508;2023-07-31T07:44:47;4.90;;;1.20;;
49029;SDS011;43337;52.070;4.508;2023-07-31T07:47:13;5.72;;;1.23;;
49029;SDS011;43337;52.070;4.508;2023-07-31T07:49:39;5.50;;;0.80;;
49029;SDS011;43337;52.070;4.508;2023-07-31T07:55:26;4.07;;;0.90;;
49029;SDS011;43337;52.070;4.508;2023-07-31T07:57:51;2.60;;;0.90;;
49029;SDS011;43337;52.070;4.508;2023-07-31T08:00:16;3.17;;;1.10;;
49029;SDS011;43337;52.070;4.508;2023-07-31T08:02:42;4.18;;;1.55;;
49029;SDS011;43337;52.070;4.508;2023-07-31T08:05:08;3.65;;;1.35;;
49029;SDS011;43337;52.070;4.508;2023-07-31T08:07:34;5.75;;;2.63;;
49029;SDS011;43337;52.070;4.508;2023-07-31T08:09:59;14.38;;;4.80;;
49029;SDS011;43337;52.070;4.508;2023-07-31T08:12:24;9.18;;;2.30;;
49029;SDS011;43337;52.070;4.508;2023-07-31T08:14:50;8.52;;;2.50;;
49029;SDS011;43337;52.070;4.508;2023-07-31T08:17:15;9.93;;;3.13;;
49029;SDS011;43337;52.070;4.508;2023-07-31T08:19:40;11.00;;;2.50;;
49029;SDS011;43337;52.070;4.508;2023-07-31T08:22:06;12.63;;;2.88;;
49029;SDS011;43337;52.070;4.508;2023-07-31T08:24:31;9.38;;;3.10;;
49029;SDS011;43337;52.070;4.508;2023-07-31T08:26:56;21.10;;;3.70;;
49029;SDS011;43337;52.070;4.508;2023-07-31T08:29:22;19.05;;;3.47;;
49029;SDS011;43337;52.070;4.508;2023-07-31T08:31:48;17.05;;;3.08;;
49029;SDS011;43337;52.070;4.508;2023-07-31T08:34:14;15.73;;;3.22;;
49029;SDS011;43337;52.070;4.508;2023-07-31T08:36:39;15.88;;;2.70;;
49029;SDS011;43337;52.070;4.508;2023-07-31T08:39:04;12.70;;;3.55;;
49029;SDS011;43337;52.070;4.508;2023-07-31T08:41:31;26.60;;;3.20;;
49029;SDS011;43337;52.070;4.508;2023-07-31T08:43:56;13.73;;;3.67;;
49029;SDS011;43337;52.070;4.508;2023-07-31T08:46:22;17.55;;;3.15;;
49029;SDS011;43337;52.070;4.508;2023-07-31T08:48:49;14.52;;;2.65;;
49029;SDS011;43337;52.070;4.508;2023-07-31T08:51:16;14.15;;;3.22;;
49029;SDS011;43337;52.070;4.508;2023-07-31T08:57:00;15.90;;;3.28;;
49029;SDS011;43337;52.070;4.508;2023-07-31T08:59:30;18.38;;;3.65;;
49029;SDS011;43337;52.070;4.508;2023-07-31T09:01:58;15.23;;;3.72;;
49029;SDS011;43337;52.070;4.508;2023-07-31T09:04:31;17.10;;;3.58;;
49029;SDS011;43337;52.070;4.508;2023-07-31T09:06:59;22.60;;;3.53;;
49029;SDS011;43337;52.070;4.508;2023-07-31T09:09:26;17.25;;;3.38;;
49029;SDS011;43337;52.070;4.508;2023-07-31T09:11:52;16.23;;;4.35;;
49029;SDS011;43337;52.070;4.508;2023-07-31T09:14:18;18.67;;;4.05;;
49029;SDS011;43337;52.070;4.508;2023-07-31T09:16:53;16.00;;;4.20;;
49029;SDS011;43337;52.070;4.508;2023-07-31T09:19:26;10.85;;;3.20;;
49029;SDS011;43337;52.070;4.508;2023-07-31T09:21:53;13.50;;;2.55;;
49029;SDS011;43337;52.070;4.508;2023-07-31T09:24:28;16.90;;;3.50;;
49029;SDS011;43337;52.070;4.508;2023-07-31T09:26:55;13.20;;;3.10;;
49029;SDS011;43337;52.070;4.508;2023-07-31T09:29:22;10.30;;;2.40;;
49029;SDS011;43337;52.070;4.508;2023-07-31T09:31:48;11.55;;;2.65;;
49029;SDS011;43337;52.070;4.508;2023-07-31T09:34:13;9.35;;;2.80;;
49029;SDS011;43337;52.070;4.508;2023-07-31T09:36:43;10.18;;;3.45;;
49029;SDS011;43337;52.070;4.508;2023-07-31T09:39:13;10.73;;;2.90;;
49029;SDS011;43337;52.070;4.508;2023-07-31T09:41:39;13.63;;;2.65;;
49029;SDS011;43337;52.070;4.508;2023-07-31T09:44:07;16.95;;;4.18;;
49029;SDS011;43337;52.070;4.508;2023-07-31T09:46:34;11.77;;;2.92;;
49029;SDS011;43337;52.070;4.508;2023-07-31T09:49:08;10.93;;;2.85;;
49029;SDS011;43337;52.070;4.508;2023-07-31T09:51:34;15.63;;;2.22;;
49029;SDS011;43337;52.070;4.508;2023-07-31T09:54:04;11.93;;;3.03;;
49029;SDS011;43337;52.070;4.508;2023-07-31T09:56:42;10.30;;;2.60;;
49029;SDS011;43337;52.070;4.508;2023-07-31T09:59:13;9.47;;;2.50;;
49029;SDS011;43337;52.070;4.508;2023-07-31T10:01:46;13.05;;;2.67;;
49029;SDS011;43337;52.070;4.508;2023-07-31T10:04:12;13.27;;;2.33;;
49029;SDS011;43337;52.070;4.508;2023-07-31T10:06:39;16.25;;;3.00;;
49029;SDS011;43337;52.070;4.508;2023-07-31T10:09:06;16.90;;;5.03;;
49029;SDS011;43337;52.070;4.508;2023-07-31T10:11:53;13.13;;;2.53;;
49029;SDS011;43337;52.070;4.508;2023-07-31T10:14:24;10.02;;;2.80;;
49029;SDS011;43337;52.070;4.508;2023-07-31T10:16:51;13.73;;;2.95;;
49029;SDS011;43337;52.070;4.508;2023-07-31T10:19:18;13.95;;;3.03;;
49029;SDS011;43337;52.070;4.508;2023-07-31T10:21:44;20.85;;;5.15;;
49029;SDS011;43337;52.070;4.508;2023-07-31T10:24:11;13.73;;;3.42;;
49029;SDS011;43337;52.070;4.508;2023-07-31T10:26:37;10.23;;;3.22;;
49029;SDS011;43337;52.070;4.508;2023-07-31T10:29:04;15.68;;;2.78;;
49029;SDS011;43337;52.070;4.508;2023-07-31T10:31:31;18.25;;;4.55;;
49029;SDS011;43337;52.070;4.508;2023-07-31T10:33:57;17.08;;;3.60;;
49029;SDS011;43337;52.070;4.508;2023-07-31T10:36:28;15.35;;;2.67;;
49029;SDS011;43337;52.070;4.508;2023-07-31T10:38:55;16.42;;;2.53;;
49029;SDS011;43337;52.070;4.508;2023-07-31T10:41:27;19.90;;;3.28;;
49029;SDS011;43337;52.070;4.508;2023-07-31T10:44:00;16.90;;;3.17;;
49029;SDS011;43337;52.070;4.508;2023-07-31T10:46:27;19.35;;;2.90;;
49029;SDS011;43337;52.070;4.508;2023-07-31T10:48:57;13.23;;;2.83;;
49029;SDS011;43337;52.070;4.508;2023-07-31T10:51:24;12.57;;;2.75;;
49029;SDS011;43337;52.070;4.508;2023-07-31T10:54:11;10.60;;;2.50;;
49029;SDS011;43337;52.070;4.508;2023-07-31T10:56:46;17.48;;;2.97;;
49029;SDS011;43337;52.070;4.508;2023-07-31T10:59:12;15.75;;;3.20;;
49029;SDS011;43337;52.070;4.508;2023-07-31T11:01:51;6.82;;;1.95;;
49029;SDS011;43337;52.070;4.508;2023-07-31T11:04:26;13.50;;;3.08;;
49029;SDS011;43337;52.070;4.508;2023-07-31T11:06:59;13.27;;;3.47;;
49029;SDS011;43337;52.070;4.508;2023-07-31T11:09:29;14.48;;;3.05;;
49029;SDS011;43337;52.070;4.508;2023-07-31T11:11:56;19.00;;;3.03;;
49029;SDS011;43337;52.070;4.508;2023-07-31T11:14:22;12.25;;;2.25;;
49029;SDS011;43337;52.070;4.508;2023-07-31T11:16:51;12.95;;;2.83;;
49029;SDS011;43337;52.070;4.508;2023-07-31T11:19:23;14.32;;;3.00;;
49029;SDS011;43337;52.070;4.508;2023-07-31T11:21:49;12.18;;;3.00;;
49029;SDS011;43337;52.070;4.508;2023-07-31T11:24:17;14.57;;;2.72;;
49029;SDS011;43337;52.070;4.508;2023-07-31T11:26:51;13.38;;;2.40;;
49029;SDS011;43337;52.070;4.508;2023-07-31T11:29:18;10.05;;;2.20;;
49029;SDS011;43337;52.070;4.508;2023-07-31T11:31:44;8.23;;;2.10;;
49029;SDS011;43337;52.070;4.508;2023-07-31T11:34:11;9.73;;;2.22;;
49029;SDS011;43337;52.070;4.508;2023-07-31T11:36:37;8.57;;;2.20;;
49029;SDS011;43337;52.070;4.508;2023-07-31T11:39:06;11.23;;;2.83;;
49029;SDS011;43337;52.070;4.508;2023-07-31T11:41:33;10.07;;;2.45;;
49029;SDS011;43337;52.070;4.508;2023-07-31T11:44:01;9.15;;;2.30;;
49029;SDS011;43337;52.070;4.508;2023-07-31T11:46:28;12.25;;;2.40;;
49029;SDS011;43337;52.070;4.508;2023-07-31T11:49:00;9.35;;;1.98;;
49029;SDS011;43337;52.070;4.508;2023-07-31T11:51:26;11.80;;;2.28;;
49029;SDS011;43337;52.070;4.508;2023-07-31T11:53:55;10.60;;;2.13;;
49029;SDS011;43337;52.070;4.508;2023-07-31T11:56:24;10.27;;;1.98;;
49029;SDS011;43337;52.070;4.508;2023-07-31T11:58:52;9.63;;;1.83;;
49029;SDS011;43337;52.070;4.508;2023-07-31T12:01:20;8.75;;;2.47;;
49029;SDS011;43337;52.070;4.508;2023-07-31T12:03:47;7.07;;;1.90;;
49029;SDS011;43337;52.070;4.508;2023-07-31T12:06:13;5.93;;;1.95;;
49029;SDS011;43337;52.070;4.508;2023-07-31T12:08:39;6.30;;;1.48;;
49029;SDS011;43337;52.070;4.508;2023-07-31T12:11:05;7.65;;;2.60;;
49029;SDS011;43337;52.070;4.508;2023-07-31T12:13:32;8.90;;;1.80;;
49029;SDS011;43337;52.070;4.508;2023-07-31T12:15:59;11.70;;;3.50;;
49029;SDS011;43337;52.070;4.508;2023-07-31T12:18:27;8.30;;;1.83;;
49029;SDS011;43337;52.070;4.508;2023-07-31T12:20:59;6.20;;;1.95;;
49029;SDS011;43337;52.070;4.508;2023-07-31T12:23:27;9.82;;;1.77;;
49029;SDS011;43337;52.070;4.508;2023-07-31T12:26:01;12.10;;;2.15;;
49029;SDS011;43337;52.070;4.508;2023-07-31T12:31:08;13.88;;;2.97;;
49029;SDS011;43337;52.070;4.508;2023-07-31T12:33:35;11.32;;;2.60;;
49029;SDS011;43337;52.070;4.508;2023-07-31T12:36:03;9.27;;;2.03;;
49029;SDS011;43337;52.070;4.508;2023-07-31T12:38:30;7.05;;;1.92;;
49029;SDS011;43337;52.070;4.508;2023-07-31T12:40:55;7.40;;;2.05;;
49029;SDS011;43337;52.070;4.508;2023-07-31T12:43:21;8.25;;;1.90;;
49029;SDS011;43337;52.070;4.508;2023-07-31T12:45:46;14.88;;;2.22;;
49029;SDS011;43337;52.070;4.508;2023-07-31T12:48:12;5.10;;;1.70;;
49029;SDS011;43337;52.070;4.508;2023-07-31T12:50:38;6.82;;;1.50;;
49029;SDS011;43337;52.070;4.508;2023-07-31T12:53:04;8.30;;;2.17;;
49029;SDS011;43337;52.070;4.508;2023-07-31T12:55:30;7.50;;;1.65;;
49029;SDS011;43337;52.070;4.508;2023-07-31T12:57:56;8.95;;;1.50;;
49029;SDS011;43337;52.070;4.508;2023-07-31T13:00:22;8.32;;;1.33;;
49029;SDS011;43337;52.070;4.508;2023-07-31T13:02:47;3.78;;;1.50;;
49029;SDS011;43337;52.070;4.508;2023-07-31T13:05:13;4.97;;;1.08;;
49029;SDS011;43337;52.070;4.508;2023-07-31T13:07:39;5.13;;;1.35;;
49029;SDS011;43337;52.070;4.508;2023-07-31T13:10:05;5.78;;;1.10;;
49029;SDS011;43337;52.070;4.508;2023-07-31T13:12:31;5.10;;;1.15;;
49029;SDS011;43337;52.070;4.508;2023-07-31T13:14:57;7.47;;;1.38;;
49029;SDS011;43337;52.070;4.508;2023-07-31T13:17:22;3.28;;;1.15;;
49029;SDS011;43337;52.070;4.508;2023-07-31T13:19:48;7.57;;;1.40;;
49029;SDS011;43337;52.070;4.508;2023-07-31T13:22:13;4.75;;;1.30;;
49029;SDS011;43337;52.070;4.508;2023-07-31T13:24:39;5.60;;;1.40;;
49029;SDS011;43337;52.070;4.508;2023-07-31T13:27:04;3.97;;;1.52;;
49029;SDS011;43337;52.070;4.508;2023-07-31T13:29:30;3.05;;;1.60;;
49029;SDS011;43337;52.070;4.508;2023-07-31T13:31:55;3.35;;;1.35;;
49029;SDS011;43337;52.070;4.508;2023-07-31T13:34:21;2.85;;;1.40;;
49029;SDS011;43337;52.070;4.508;2023-07-31T13:36:46;18.13;;;8.85;;
49029;SDS011;43337;52.070;4.508;2023-07-31T13:39:12;6.15;;;1.52;;
49029;SDS011;43337;52.070;4.508;2023-07-31T13:41:37;3.20;;;1.70;;
49029;SDS011;43337;52.070;4.508;2023-07-31T13:44:02;2.78;;;1.48;;
49029;SDS011;43337;52.070;4.508;2023-07-31T13:46:28;3.40;;;1.40;;
49029;SDS011;43337;52.070;4.508;2023-07-31T13:48:53;2.90;;;1.10;;
49029;SDS011;43337;52.070;4.508;2023-07-31T13:51:20;2.60;;;0.82;;
49029;SDS011;43337;52.070;4.508;2023-07-31T13:53:46;4.05;;;1.10;;
49029;SDS011;43337;52.070;4.508;2023-07-31T13:56:11;5.63;;;1.50;;
49029;SDS011;43337;52.070;4.508;2023-07-31T13:58:37;3.28;;;1.00;;
49029;SDS011;43337;52.070;4.508;2023-07-31T14:01:02;2.65;;;0.60;;
49029;SDS011;43337;52.070;4.508;2023-07-31T14:03:30;3.00;;;1.25;;
49029;SDS011;43337;52.070;4.508;2023-07-31T14:05:55;2.90;;;0.60;;
49029;SDS011;43337;52.070;4.508;2023-07-31T14:08:21;2.58;;;0.60;;
49029;SDS011;43337;52.070;4.508;2023-07-31T14:10:46;4.88;;;0.85;;
49029;SDS011;43337;52.070;4.508;2023-07-31T14:13:12;2.97;;;0.85;;
49029;SDS011;43337;52.070;4.508;2023-07-31T14:15:37;2.90;;;0.80;;
49029;SDS011;43337;52.070;4.508;2023-07-31T14:18:04;2.22;;;0.85;;
49029;SDS011;43337;52.070;4.508;2023-07-31T14:20:29;2.70;;;0.80;;
49029;SDS011;43337;52.070;4.508;2023-07-31T14:22:55;3.13;;;0.73;;
49029;SDS011;43337;52.070;4.508;2023-07-31T14:25:20;2.67;;;0.70;;
49029;SDS011;43337;52.070;4.508;2023-07-31T14:27:46;2.65;;;0.88;;
49029;SDS011;43337;52.070;4.508;2023-07-31T14:30:11;2.85;;;0.77;;
49029;SDS011;43337;52.070;4.508;2023-07-31T14:32:37;3.53;;;1.65;;
49029;SDS011;43337;52.070;4.508;2023-07-31T14:35:02;2.10;;;0.90;;
49029;SDS011;43337;52.070;4.508;2023-07-31T14:37:36;1.88;;;0.88;;
49029;SDS011;43337;52.070;4.508;2023-07-31T14:40:11;2.30;;;0.75;;
49029;SDS011;43337;52.070;4.508;2023-07-31T14:42:37;7.75;;;3.35;;
49029;SDS011;43337;52.070;4.508;2023-07-31T14:45:03;1.17;;;0.50;;
49029;SDS011;43337;52.070;4.508;2023-07-31T14:47:29;2.08;;;0.60;;
49029;SDS011;43337;52.070;4.508;2023-07-31T14:49:58;2.38;;;0.60;;
49029;SDS011;43337;52.070;4.508;2023-07-31T14:52:24;1.23;;;0.52;;
49029;SDS011;43337;52.070;4.508;2023-07-31T14:54:51;1.98;;;0.50;;
49029;SDS011;43337;52.070;4.508;2023-07-31T14:57:17;1.30;;;0.50;;
49029;SDS011;43337;52.070;4.508;2023-07-31T14:59:42;3.65;;;0.98;;
49029;SDS011;43337;52.070;4.508;2023-07-31T15:02:08;1.45;;;0.60;;
49029;SDS011;43337;52.070;4.508;2023-07-31T15:04:34;1.85;;;0.60;;